createdAt,value
2022-11-28T00:00:46.932Z,5.47
2022-11-28T00:05:48.930Z,5.50
2022-11-28T00:10:50.919Z,5.50
2022-11-28T00:16:00.248Z,5.48
2022-11-28T00:21:07.954Z,5.44
2022-11-28T00:26:22.057Z,5.42
2022-11-28T00:31:30.280Z,5.42
2022-11-28T00:36:32.215Z,5.41
2022-11-28T00:41:35.426Z,5.38
2022-11-28T00:46:37.311Z,5.38
2022-11-28T00:51:39.552Z,5.42
2022-11-28T00:56:41.447Z,5.43
2022-11-28T01:01:44.388Z,5.45
2022-11-28T01:06:49.068Z,5.42
2022-11-28T01:11:53.845Z,5.41
2022-11-28T01:16:55.685Z,5.37
2022-11-28T01:21:57.545Z,5.33
2022-11-28T01:26:59.516Z,5.28
2022-11-28T01:32:01.416Z,5.25
2022-11-28T01:37:03.375Z,5.21
2022-11-28T01:42:05.210Z,5.20
2022-11-28T01:47:07.068Z,5.16
2022-11-28T01:52:13.443Z,5.17
2022-11-28T01:57:19.792Z,5.16
2022-11-28T02:02:36.928Z,5.15
2022-11-28T02:07:40.966Z,5.13
2022-11-28T02:13:05.641Z,5.12
2022-11-28T02:18:31.370Z,5.12
2022-11-28T02:23:38.780Z,5.11
2022-11-28T02:29:11.348Z,5.08
2022-11-28T02:34:21.756Z,5.08
2022-11-28T02:39:41.646Z,5.08
2022-11-28T02:44:55.832Z,5.06
2022-11-28T02:50:12.144Z,5.05
2022-11-28T02:55:15.327Z,5.03
2022-11-28T03:00:23.848Z,4.99
2022-11-28T03:05:43.163Z,4.93
2022-11-28T03:10:57.170Z,4.93
2022-11-28T03:16:16.869Z,4.90
2022-11-28T03:21:33.045Z,4.88
2022-11-28T03:26:47.020Z,4.87
2022-11-28T03:31:57.599Z,4.81
2022-11-28T03:37:11.612Z,4.79
2022-11-28T03:42:21.214Z,4.76
2022-11-28T03:47:28.402Z,4.77
2022-11-28T03:52:35.589Z,4.78
2022-11-28T03:57:47.762Z,4.77
2022-11-28T04:03:02.407Z,4.72
2022-11-28T04:08:19.433Z,4.64
2022-11-28T04:13:26.186Z,4.59
2022-11-28T04:18:40.237Z,4.54
2022-11-28T04:23:45.042Z,4.46
2022-11-28T04:28:50.072Z,4.42
2022-11-28T04:33:58.374Z,4.39
2022-11-28T04:39:01.635Z,4.37
2022-11-28T04:44:13.646Z,4.31
2022-11-28T04:49:15.610Z,4.29
2022-11-28T04:54:33.631Z,4.30
2022-11-28T04:59:35.582Z,4.28
2022-11-28T05:04:38.502Z,4.33
2022-11-28T05:09:40.359Z,4.31
2022-11-28T05:14:42.488Z,4.30
2022-11-28T05:19:44.413Z,4.30
2022-11-28T05:24:46.422Z,4.33
2022-11-28T05:29:52.221Z,4.34
2022-11-28T05:34:54.279Z,4.33
2022-11-28T05:39:56.152Z,4.33
2022-11-28T05:44:58.018Z,4.34
2022-11-28T05:50:00.018Z,4.34
2022-11-28T05:55:01.881Z,4.40
2022-11-28T06:00:04.458Z,4.40
2022-11-28T06:05:40.421Z,4.42
2022-11-28T06:10:35.859Z,4.44
2022-11-28T06:15:38.650Z,4.42
2022-11-28T06:20:40.622Z,4.41
2022-11-28T06:25:42.453Z,4.46
2022-11-28T06:30:44.688Z,4.49
2022-11-28T06:35:46.482Z,4.57
2022-11-28T06:40:48.277Z,4.57
2022-11-28T06:45:50.152Z,4.58
2022-11-28T06:50:53.017Z,4.59
2022-11-28T06:55:55.037Z,4.60
2022-11-28T07:00:56.900Z,4.65
2022-11-28T07:06:04.220Z,4.67
2022-11-28T07:11:12.946Z,4.73
2022-11-28T07:16:21.332Z,4.75
2022-11-28T07:21:24.150Z,4.78
2022-11-28T07:26:26.056Z,4.78
2022-11-28T07:31:32.250Z,4.77
2022-11-28T07:36:34.422Z,4.76
2022-11-28T07:41:36.325Z,4.78
2022-11-28T07:46:39.523Z,4.81
2022-11-28T07:51:42.311Z,4.81
2022-11-28T07:57:11.514Z,4.82
2022-11-28T08:02:06.113Z,4.86
2022-11-28T08:07:07.955Z,4.84
2022-11-28T08:12:09.744Z,4.88
2022-11-28T08:17:11.558Z,4.90
2022-11-28T08:22:13.468Z,4.90
2022-11-28T08:27:15.244Z,4.95
2022-11-28T08:32:17.300Z,5.07
2022-11-28T08:37:19.123Z,5.20
2022-11-28T08:42:21.466Z,5.30
2022-11-28T08:47:23.355Z,5.36
2022-11-28T08:52:25.549Z,5.40
2022-11-28T08:57:27.345Z,5.40
2022-11-28T09:02:29.219Z,5.39
2022-11-28T09:07:31.196Z,5.44
2022-11-28T09:12:33.037Z,5.44
2022-11-28T09:17:34.842Z,5.47
2022-11-28T09:22:36.688Z,5.45
2022-11-28T09:27:38.508Z,5.46
2022-11-28T09:32:40.441Z,5.49
2022-11-28T09:37:42.373Z,5.56
2022-11-28T09:42:45.788Z,5.59
2022-11-28T09:47:52.250Z,5.60
2022-11-28T09:53:02.575Z,5.70
2022-11-28T09:58:24.542Z,5.83
2022-11-28T10:03:39.563Z,5.76
2022-11-28T10:09:02.972Z,5.91
2022-11-28T10:14:39.958Z,5.73
2022-11-28T10:20:09.361Z,5.81
2022-11-28T10:25:22.815Z,5.70
2022-11-28T10:30:27.488Z,5.73
2022-11-28T10:35:50.883Z,5.80
2022-11-28T10:41:13.442Z,6.07
2022-11-28T10:46:18.011Z,5.99
2022-11-28T10:51:19.844Z,6.11
2022-11-28T10:56:40.410Z,6.35
2022-11-28T11:01:46.004Z,6.21
2022-11-28T11:07:20.223Z,6.22
2022-11-28T11:12:30.722Z,6.25
2022-11-28T11:17:36.582Z,6.25
2022-11-28T11:22:38.615Z,6.46
2022-11-28T11:28:03.550Z,6.60
2022-11-28T11:33:13.958Z,6.53
2022-11-28T11:38:21.512Z,6.48
2022-11-28T11:43:29.331Z,6.49
2022-11-28T11:48:41.183Z,6.73
2022-11-28T11:53:44.174Z,6.82
2022-11-28T11:58:54.388Z,6.90
2022-11-28T12:04:23.669Z,6.76
2022-11-28T12:09:42.281Z,6.80
2022-11-28T12:14:44.956Z,6.73
2022-11-28T12:20:02.520Z,6.78
2022-11-28T12:25:10.500Z,6.80
2022-11-28T12:30:44.929Z,6.83
2022-11-28T12:36:03.303Z,6.87
2022-11-28T12:41:05.441Z,6.91
2022-11-28T12:46:22.459Z,6.95
2022-11-28T12:51:59.434Z,7.01
2022-11-28T12:57:36.762Z,6.98
2022-11-28T13:03:03.150Z,7.13
2022-11-28T13:08:23.649Z,7.07
2022-11-28T13:13:35.474Z,6.98
2022-11-28T13:18:46.000Z,7.18
2022-11-28T13:24:07.131Z,7.05
2022-11-28T13:29:20.864Z,7.10
2022-11-28T13:34:23.258Z,7.06
2022-11-28T13:39:27.842Z,7.08
2022-11-28T13:44:59.331Z,7.03
2022-11-28T13:50:25.834Z,6.90
2022-11-28T13:55:36.836Z,6.86
2022-11-28T14:00:40.988Z,6.85
2022-11-28T14:05:45.408Z,6.81
2022-11-28T14:10:58.080Z,6.75
2022-11-28T14:16:09.643Z,6.75
2022-11-28T14:21:23.561Z,6.80
2022-11-28T14:26:35.314Z,6.83
2022-11-28T14:31:39.076Z,6.88
2022-11-28T14:36:43.162Z,6.90
2022-11-28T14:42:03.935Z,6.88
2022-11-28T14:47:13.308Z,6.83
2022-11-28T14:57:45.008Z,6.65
2022-11-28T15:02:56.259Z,6.65
2022-11-28T15:08:25.541Z,6.62
2022-11-28T15:13:30.557Z,6.61
2022-11-28T15:18:33.494Z,6.59
2022-11-28T15:23:38.544Z,6.60
2022-11-28T15:28:40.421Z,6.59
2022-11-28T15:33:42.444Z,6.58
2022-11-28T15:38:44.356Z,6.59
2022-11-28T15:43:46.504Z,6.62
2022-11-28T15:48:50.834Z,6.66
2022-11-28T15:53:52.795Z,6.72
2022-11-28T15:58:55.064Z,6.68
2022-11-28T16:04:07.784Z,6.71
2022-11-28T16:09:18.936Z,6.57
2022-11-28T16:14:31.821Z,6.47
2022-11-28T16:19:36.661Z,6.42
2022-11-28T16:24:50.484Z,6.45
2022-11-28T16:29:52.357Z,6.38
2022-11-28T16:34:55.727Z,6.32
2022-11-28T16:40:14.830Z,6.36
2022-11-28T16:45:21.226Z,6.36
2022-11-28T16:50:25.206Z,6.24
2022-11-28T16:55:38.647Z,6.16
2022-11-28T17:01:03.003Z,6.14
2022-11-28T17:06:04.966Z,6.24
2022-11-28T17:11:06.862Z,6.18
2022-11-28T17:16:17.744Z,6.25
2022-11-28T17:21:33.267Z,6.29
2022-11-28T17:26:35.077Z,6.19
2022-11-28T17:31:37.472Z,6.18
2022-11-28T17:36:39.340Z,6.14
2022-11-28T17:41:41.378Z,6.13
2022-11-28T17:46:43.198Z,6.20
2022-11-28T17:51:45.755Z,6.21
2022-11-28T17:56:52.650Z,6.24
2022-11-28T18:01:54.628Z,6.27
2022-11-28T18:07:00.191Z,6.30
2022-11-28T18:12:01.980Z,6.36
2022-11-28T18:17:04.264Z,6.37
2022-11-28T18:22:08.579Z,6.42
2022-11-28T18:27:10.384Z,6.49
2022-11-28T18:32:12.325Z,6.50
2022-11-28T18:37:14.151Z,6.46
2022-11-28T18:42:17.525Z,6.43
2022-11-28T18:47:19.623Z,6.45
2022-11-28T18:52:21.464Z,6.49
2022-11-28T18:57:23.611Z,6.66
2022-11-28T19:02:25.567Z,6.82
2022-11-28T19:07:27.539Z,6.99
2022-11-28T19:12:29.430Z,6.92
2022-11-28T19:17:31.344Z,6.89
2022-11-28T19:22:35.716Z,6.97
2022-11-28T19:27:37.717Z,6.82
2022-11-28T19:32:39.537Z,6.82
2022-11-28T19:37:42.258Z,6.90
2022-11-28T19:42:44.060Z,6.85
2022-11-28T19:47:48.655Z,6.76
2022-11-28T19:52:50.625Z,6.76
2022-11-28T19:57:52.904Z,6.66
2022-11-28T20:02:55.071Z,6.60
2022-11-28T20:07:58.616Z,6.59
2022-11-28T20:13:00.764Z,6.58
2022-11-28T20:18:03.779Z,6.57
2022-11-28T20:23:06.603Z,6.49
2022-11-28T20:28:08.699Z,6.53
2022-11-28T20:33:10.774Z,6.38
2022-11-28T20:38:12.847Z,6.21
2022-11-28T20:43:14.681Z,6.15
2022-11-28T20:48:16.529Z,6.10
2022-11-28T20:53:23.679Z,6.06
2022-11-28T20:58:28.750Z,5.93
2022-11-28T21:03:30.578Z,5.78
2022-11-28T21:08:33.835Z,5.76
2022-11-28T21:13:35.831Z,5.76
2022-11-28T21:18:39.283Z,5.83
2022-11-28T21:23:42.377Z,5.89
2022-11-28T21:28:45.934Z,5.88
2022-11-28T21:33:49.194Z,5.92
2022-11-28T21:38:56.449Z,5.93
2022-11-28T21:43:59.766Z,5.93
2022-11-28T21:49:02.986Z,6.01
2022-11-28T21:54:04.957Z,6.03
2022-11-28T21:59:07.095Z,6.06
2022-11-28T22:04:10.740Z,6.12
2022-11-28T22:09:13.567Z,6.16
2022-11-28T22:14:15.786Z,6.21
2022-11-28T22:19:17.814Z,6.24
2022-11-28T22:24:19.776Z,6.23
2022-11-28T22:29:22.001Z,6.21
2022-11-28T22:34:24.021Z,6.29
2022-11-28T22:39:25.915Z,6.33
2022-11-28T22:44:27.911Z,6.34
2022-11-28T22:49:29.830Z,6.36
2022-11-28T22:54:31.811Z,6.39
2022-11-28T22:59:35.305Z,6.39
2022-11-28T23:04:38.081Z,6.37
2022-11-28T23:09:40.202Z,6.35
2022-11-28T23:14:42.444Z,6.29
2022-11-28T23:19:44.759Z,6.24
2022-11-28T23:24:46.638Z,6.23
2022-11-28T23:29:48.508Z,6.18
2022-11-28T23:34:50.473Z,6.18
2022-11-28T23:39:52.314Z,6.19
2022-11-28T23:44:54.174Z,6.18
2022-11-28T23:49:56.017Z,6.22
2022-11-28T23:54:57.929Z,6.25
